Lo Tralh de las Trufièras - 12/03/2017

Lo Tralh del Trufet ( 10 km D+300 m )

112 participants classés


Retour au Sommaire - Signaler une erreur - Faire défiler





1 2 3 /fin /tout

page suivante ->

Pl Do. Nom - Surname Prénom - Name S-Cat /cat Club - Team TEMPS - Time Km/h /sx
1 311 SIGE OLIVIER MCA 1 NL 00:49:01 12,2 1
2 203 BELLAÏLA ARNAUD MSE 1   00:49:31 12,1 2
3 277 MARTY THIERRY MV1 1 NL 00:50:30 11,9 3
4 216 GIRO JEREMY MSE 2   00:51:51 11,6 4
5 265 BENET GILBERT MV2 1 JSL 00:53:09 11,3 5
6 305 KACI SEBASTIEN MV1 2 SPORT 2000 00:53:21 11,2 6
7 257 MONIER CHRISTOPHE MV1 3 PACOULIX 00:54:13 11,1 7
8 245 REY AUDRIC MCA 2 LAURAGAIS ATHLETISME CASTELNAUDARY 00:54:50 10,9 8
9 268 LAGRAA TAIEF MV2 2 NL 00:55:06 10,9 9
10 262 GUIRAUD THOMAS MSE 3 Bande de trailcassés 00:55:59 10,7 10
11 210 GAUBERT CLÉMENT MSE 4 GRUISSAN SPORT EVENEMENTS 00:57:03 10,5 11
12 226 BALLESTER THIERRY MV2 3 GROLES TROTTEURS 00:57:36 10,4 12
13 206 SERVOLES FLORIAN MJU 1 GROLES TROTTEURS DU MINERVOIS 00:57:36 10,4 13
14 291 AMAHIC LAURENT MV1 4 NL 00:57:50 10,4 14
15 274 CERESUELA STEPHAN MV1 5 NL 00:58:11 10,3 15
16 276 JOSSE FREDERICK MSE 5 NL 00:59:09 10,1 16
17 227 VILLAN JEREMY MSE 6   00:59:52 10,0 17
18 248 LEMAZURIER JOHANNE FSE 1   01:00:03 10,0 1
19 266 EVENAT ISABELLE FSE 2 Team Papy Coach 01:00:17 10,0 2
20 228 COLLINET LOIC MSE 7   01:00:58 9,8 18
21 238 DEWAVRIN FLORIAN MJU 2   01:01:21 9,8 19
22 240 BRONDEAU LAURENT MV1 6 Team Benoit Lançon 01:01:52 9,7 20
23 275 ICHE DANIEL MV3 1 NL 01:03:39 9,4 21
24 314 SOLIER ARNAUD MV1 7 NL 01:03:46 9,4 22
25 313 GAU CHRISTOPHE MV2 4 NL 01:03:48 9,4 23
26 235 CROUZAL STEFANIE FV1 1 GINESTAS XTRAIL 01:03:50 9,4 3
27 278 DENOY JOEL MV3 2 NL 01:03:55 9,4 24
28 282 VALETTE DAVID MV1 8 NL 01:04:07 9,4 25
29 297 SANTOUL JEAN LOUIS MV2 5 NL 01:04:35 9,3 26
30 290 PERRAMOND JEAN PIERRE MV3 3 NL 01:04:58 9,2 27
31 200 FABRE LUCAS MES 1   01:04:59 9,2 28
32 218 LABATUT PAULINE FSE 3   01:05:11 9,2 4
33 302 VOTIER WILFRIED MSE 8 NL 01:05:29 9,2 29
34 312 BOUTIE ANNA FV1 2 NL 01:05:31 9,2 5
35 205 DELQUIE JEAN CHRISTOPHE MV2 6 Les groles trotteurs du minervois 01:05:35 9,1 30
36 233 LOT PATRICK MV2 7 POUMPILS DU CABARDES 01:06:18 9,0 31
37 246 ROBERT JEAN-PAUL MV2 8 ACP 11/TOP CHRONO 01:06:28 9,0 32
38 284 FERRASSE YVES MV2 9 NL 01:07:04 8,9 33
39 307 VERDEIL PIERRE MV2 10 CAPS 01:07:09 8,9 34
40 261 CLEMENT VIANNEY MV1 9 ACFC / ACP11 01:07:09 8,9 35
41 300 LORENT PASCAL MV1 10 NL 01:07:43 8,9 36
42 236 DELCOUDERC HERVÉ MV1 11 Les groles trotteurs du minervois 01:08:31 8,8 37
43 212 SCHRAUBEN RYM FSE 4 RUN'ACAD 01:08:32 8,8 6
44 207 WOLLNER NINA FV1 3 RAC ST ESTEVE 01:09:03 8,7 7
45 230 LOUIS MICHEL MV2 11 ACP 11 01:09:05 8,7 38
46 204 BARLAUD STÉPHANIE FV1 4 Les groles trotteurs du minervois 01:09:08 8,7 8
47 221 MANENT JOÊL MV2 12   01:09:36 8,6 39
48 224 LOUIS ROGER MV1 12 Les calésiens 01:09:36 8,6 40
49 301 EMPOCIELLO JONATHAN MSE 9 NL 01:10:20 8,5 41
50 251 LE GOAS PHILIPPE MV1 13   01:10:25 8,5 42

Aucun commentaires pour le moment, donnez votre avis, vos impressions avant, pendant! et après la course

Déjà membre? Identifiez-vous pour commenter l'épreuve ou créer un compte